Time;durP1;ratioP1;P1;durP2;ratioP2;P2;SDS_P1;SDS_P2;PMS_P1;PMS_P2;Temp;Humidity;BMP_temperature;BMP_pressure;BME280_temperature;BME280_humidity;BME280_pressure;Samples;Min_cycle;Max_cycle;Signal;HPM_P1;HPM_P2
2023/11/22 00:00:51;;;;;;;3.90;1.40;;;;;;;5.78;59.50;99471.56;4360169;32;20433;-92
2023/11/22 00:03:16;;;;;;;2.08;0.62;;;;;;;5.65;59.49;99467.47;4379347;32;20106;-92
2023/11/22 00:05:42;;;;;;;0.30;0.30;;;;;;;5.76;59.50;99469.03;4366549;32;20138;-91
2023/11/22 00:08:07;;;;;;;0.75;0.45;;;;;;;5.92;59.51;99471.38;4367190;32;20145;-91
2023/11/22 00:10:33;;;;;;;0.17;0.17;;;;;;;5.63;59.49;99474.41;4365214;32;20142;-93
2023/11/22 00:12:58;;;;;;;0.68;0.68;;;;;;;5.54;59.49;99484.00;4374417;32;20109;-91
2023/11/22 00:15:24;;;;;;;0.43;0.40;;;;;;;5.68;59.50;99486.38;4381449;32;20143;-92
2023/11/22 00:17:49;;;;;;;1.52;1.40;;;;;;;5.58;59.48;99483.97;4368803;32;20139;-91
2023/11/22 00:20:15;;;;;;;1.70;1.17;;;;;;;5.60;59.48;99483.06;4380443;32;20161;-92
2023/11/22 00:25:43;;;;;;;0.90;0.90;;;;;;;5.40;59.48;99496.28;4367536;32;20090;-92
2023/11/22 00:28:08;;;;;;;0.15;0.15;;;;;;;5.35;59.47;99495.50;4368769;32;20124;-91
2023/11/22 00:30:33;;;;;;;0.73;0.73;;;;;;;5.35;59.47;99504.97;4368368;32;20148;-92
2023/11/22 00:32:59;;;;;;;1.33;1.23;;;;;;;5.22;59.46;99507.75;4373327;32;20165;-92
2023/11/22 00:35:24;;;;;;;1.42;1.08;;;;;;;5.24;59.47;99505.97;4380842;32;20159;-92
2023/11/22 00:37:57;;;;;;;3.90;1.95;;;;;;;5.28;59.47;99495.63;4356352;32;20137;-92
2023/11/22 00:40:22;;;;;;;0.47;0.47;;;;;;;5.29;59.47;99499.91;4394191;32;20470;-92
2023/11/22 00:42:48;;;;;;;0.00;0.00;;;;;;;5.27;59.47;99493.91;4370975;32;20181;-91
2023/11/22 00:45:13;;;;;;;1.08;1.05;;;;;;;5.29;59.46;99493.00;4366025;32;20487;-93
2023/11/22 00:47:38;;;;;;;0.70;0.70;;;;;;;5.19;59.46;99497.44;4393778;32;20416;-92
2023/11/22 00:50:04;;;;;;;1.27;1.17;;;;;;;5.12;59.46;99494.97;4376755;32;20146;-92
2023/11/22 00:52:33;;;;;;;1.08;0.70;;;;;;;5.11;59.46;99493.28;4368471;32;20144;-91
2023/11/22 00:54:58;;;;;;;0.75;0.75;;;;;;;5.04;59.46;99492.50;4394184;32;20149;-92
2023/11/22 00:57:24;;;;;;;1.87;1.65;;;;;;;5.23;59.46;99499.13;4381201;32;20474;-92
2023/11/22 00:59:49;;;;;;;1.17;0.80;;;;;;;5.10;59.46;99492.41;4394116;32;20487;-91
2023/11/22 01:02:53;;;;;;;1.55;1.23;;;;;;;5.13;59.46;99486.34;4393979;32;20102;-92
2023/11/22 01:05:18;;;;;;;0.57;0.57;;;;;;;5.14;59.46;99493.22;4385495;32;20090;-93
2023/11/22 01:07:44;;;;;;;2.72;1.35;;;;;;;5.06;59.46;99490.75;4378609;32;20116;-92
2023/11/22 01:10:10;;;;;;;1.37;1.27;;;;;;;5.24;59.47;99498.25;4369160;32;20162;-93
2023/11/22 01:12:35;;;;;;;1.25;1.20;;;;;;;5.04;59.46;99501.97;4368824;32;20174;-92
2023/11/22 01:15:00;;;;;;;0.82;0.80;;;;;;;5.20;59.46;99506.03;4381143;32;20138;-93
2023/11/22 01:17:26;;;;;;;0.22;0.22;;;;;;;4.96;59.45;99520.09;4381437;32;20165;-92
2023/11/22 01:19:52;;;;;;;1.50;1.33;;;;;;;5.14;59.46;99517.28;4393733;32;20122;-92
2023/11/22 01:22:17;;;;;;;2.87;2.22;;;;;;;5.20;59.47;99513.75;4392899;32;20399;-92
2023/11/22 01:24:43;;;;;;;1.33;0.75;;;;;;;5.09;59.46;99518.22;4373207;32;20130;-91
2023/11/22 01:27:08;;;;;;;0.30;0.30;;;;;;;5.07;59.45;99518.25;4381184;32;20133;-91
2023/11/22 01:29:34;;;;;;;2.00;0.60;;;;;;;5.29;59.47;99518.81;4386192;32;20105;-92
2023/11/22 01:31:59;;;;;;;1.50;0.73;;;;;;;5.16;59.47;99520.69;4381228;32;20159;-93
2023/11/22 01:34:25;;;;;;;0.10;0.10;;;;;;;5.26;59.47;99529.19;4373272;32;20448;-92
2023/11/22 01:36:51;;;;;;;1.08;1.02;;;;;;;5.31;59.48;99517.06;4371236;32;20098;-92
2023/11/22 01:39:16;;;;;;;0.30;0.30;;;;;;;5.40;59.48;99526.38;4382858;32;20103;-92
2023/11/22 01:41:45;;;;;;;0.98;0.98;;;;;;;5.43;59.48;99524.59;4391004;32;20168;-93
2023/11/22 01:44:10;;;;;;;1.00;0.95;;;;;;;5.57;59.49;99526.16;4376633;32;20164;-92
2023/11/22 01:46:36;;;;;;;0.10;0.10;;;;;;;5.60;59.48;99518.34;4390625;32;20149;-92
2023/11/22 01:49:01;;;;;;;2.70;2.50;;;;;;;5.63;59.49;99518.28;4376566;32;20094;-92
2023/11/22 01:51:27;;;;;;;1.90;1.60;;;;;;;5.78;59.50;99516.34;4380782;32;20148;-92
2023/11/22 01:53:53;;;;;;;1.27;1.25;;;;;;;5.92;59.51;99517.88;4380822;32;20173;-93
2023/11/22 01:56:20;;;;;;;1.12;1.10;;;;;;;5.84;59.51;99518.81;4379424;32;20153;-93
2023/11/22 01:58:45;;;;;;;0.10;0.10;;;;;;;5.77;59.50;99519.78;4376287;32;20418;-93
2023/11/22 02:01:11;;;;;;;0.47;0.47;;;;;;;5.78;59.50;99533.56;4378704;32;20107;-92
2023/11/22 02:04:26;;;;;;;0.80;0.80;;;;;;;5.81;59.50;99528.34;4375968;32;20112;-93
2023/11/22 02:06:52;;;;;;;0.37;0.37;;;;;;;6.07;59.52;99523.63;4391563;32;20101;-92
2023/11/22 02:09:17;;;;;;;0.55;0.50;;;;;;;6.21;59.52;99519.94;4381409;32;20090;-91
2023/11/22 02:12:35;;;;;;;1.33;1.23;;;;;;;6.13;59.51;99530.41;4368015;32;20197;-93
2023/11/22 02:15:02;;;;;;;0.55;0.55;;;;;;;6.08;59.52;99529.63;4382101;32;20491;-92
2023/11/22 02:17:28;;;;;;;0.05;0.05;;;;;;;6.17;59.52;99526.06;4380982;32;20104;-92
2023/11/22 02:19:56;;;;;;;1.85;1.75;;;;;;;5.94;59.51;99531.62;4380985;32;20102;-92
2023/11/22 02:22:21;;;;;;;0.20;0.20;;;;;;;5.89;59.50;99538.53;4369262;32;20165;-92
2023/11/22 02:24:47;;;;;;;0.08;0.08;;;;;;;6.00;59.51;99547.88;4393569;32;20470;-93
2023/11/22 02:27:12;;;;;;;0.90;0.45;;;;;;;6.13;59.52;99557.09;4393662;32;20195;-93
2023/11/22 02:29:38;;;;;;;0.37;0.37;;;;;;;6.07;59.51;99549.47;4374595;32;20166;-93
2023/11/22 02:32:04;;;;;;;0.00;0.00;;;;;;;5.87;59.50;99542.00;4372490;32;20439;-92
2023/11/22 02:34:29;;;;;;;0.10;0.10;;;;;;;5.87;59.50;99539.41;4375693;32;20542;-91
2023/11/22 02:36:55;;;;;;;0.43;0.43;;;;;;;5.87;59.50;99541.16;4389797;32;20120;-92
2023/11/22 02:39:20;;;;;;;2.40;2.20;;;;;;;5.80;59.50;99548.16;4368153;32;20484;-93
2023/11/22 02:41:45;;;;;;;0.98;0.98;;;;;;;5.95;59.51;99541.06;4377956;32;22190;-92
2023/11/22 02:44:14;;;;;;;2.47;1.35;;;;;;;6.07;59.52;99548.59;4388360;32;20121;-92
2023/11/22 02:46:39;;;;;;;1.25;1.00;;;;;;;6.00;59.51;99559.94;4366633;32;20103;-92
2023/11/22 02:49:05;;;;;;;1.48;1.37;;;;;;;5.90;59.51;99559.22;4393372;32;20094;-93
2023/11/22 02:51:30;;;;;;;0.98;0.98;;;;;;;5.87;59.50;99554.06;4393126;32;20364;-92
2023/11/22 02:53:56;;;;;;;0.00;0.00;;;;;;;5.81;59.50;99559.34;4385447;32;20225;-92
2023/11/22 02:56:21;;;;;;;0.10;0.10;;;;;;;5.76;59.50;99572.31;4390588;32;20114;-91
2023/11/22 02:58:47;;;;;;;1.05;1.00;;;;;;;5.57;59.49;99576.06;4374842;32;20484;-93
2023/11/22 03:01:13;;;;;;;0.62;0.62;;;;;;;5.64;59.49;99576.81;4393192;32;20631;-91
2023/11/22 03:03:39;;;;;;;0.13;0.13;;;;;;;5.73;59.49;99574.97;4392922;32;20090;-91
2023/11/22 03:06:05;;;;;;;0.40;0.40;;;;;;;5.67;59.49;99581.91;4392606;32;20717;-91
2023/11/22 03:08:31;;;;;;;0.77;0.77;;;;;;;5.83;59.51;99584.25;4371893;32;20106;-91
2023/11/22 03:10:56;;;;;;;0.00;0.00;;;;;;;5.79;59.50;99592.09;4379946;32;20434;-92
2023/11/22 03:13:22;;;;;;;0.45;0.45;;;;;;;6.03;59.51;99594.31;4371240;32;20087;-91
2023/11/22 03:15:48;;;;;;;4.93;1.23;;;;;;;6.18;59.51;99593.22;4386931;32;20103;-91
2023/11/22 03:18:13;;;;;;;5.47;0.60;;;;;;;6.22;59.53;99594.03;4378248;32;20146;-91
2023/11/22 03:20:39;;;;;;;2.45;1.23;;;;;;;6.09;59.52;99596.78;4377798;32;20149;-92
2023/11/22 03:23:05;;;;;;;0.47;0.47;;;;;;;5.98;59.50;99603.03;4372793;32;20140;-93
2023/11/22 03:25:30;;;;;;;0.28;0.28;;;;;;;5.96;59.50;99591.88;4370087;32;20133;-91
2023/11/22 03:27:55;;;;;;;0.20;0.20;;;;;;;6.01;59.51;99597.81;4392784;32;20439;-93
2023/11/22 03:30:21;;;;;;;0.47;0.47;;;;;;;6.23;59.53;99598.31;4370348;32;20107;-92
2023/11/22 03:33:00;;;;;;;0.20;0.20;;;;;;;6.21;59.53;99605.25;4385576;32;20460;-92
2023/11/22 03:35:25;;;;;;;0.25;0.25;;;;;;;6.17;59.52;99599.28;4371431;32;20146;-92
2023/11/22 03:37:51;;;;;;;1.12;1.05;;;;;;;6.12;59.51;99606.22;4355098;32;20444;-91
2023/11/22 03:40:16;;;;;;;0.37;0.28;;;;;;;6.17;59.51;99604.44;4380110;32;20154;-91
2023/11/22 03:42:42;;;;;;;0.10;0.10;;;;;;;6.10;59.52;99605.41;4391849;32;20111;-91
2023/11/22 03:45:07;;;;;;;1.48;1.37;;;;;;;6.07;59.51;99602.88;4379287;32;20114;-93
2023/11/22 03:47:33;;;;;;;1.65;1.10;;;;;;;6.14;59.52;99612.22;4380378;32;20380;-93
2023/11/22 03:49:59;;;;;;;0.73;0.73;;;;;;;6.24;59.52;99618.09;4380468;32;20502;-93
2023/11/22 03:52:25;;;;;;;0.43;0.43;;;;;;;6.20;59.52;99622.47;4371790;32;20137;-92
2023/11/22 03:54:50;;;;;;;1.50;0.90;;;;;;;6.15;59.52;99616.50;4380297;32;20090;-93
2023/11/22 03:57:16;;;;;;;0.30;0.25;;;;;;;6.11;59.51;99617.44;4371680;32;20106;-92
2023/11/22 03:59:43;;;;;;;1.40;0.95;;;;;;;6.02;59.51;99627.94;4393639;32;20114;-93
2023/11/22 04:02:08;;;;;;;0.00;0.00;;;;;;;6.31;59.53;99622.28;4376203;32;20094;-92
2023/11/22 04:04:34;;;;;;;0.75;0.75;;;;;;;6.22;59.52;99622.44;4380610;32;20108;-92
2023/11/22 04:07:00;;;;;;;0.32;0.32;;;;;;;6.31;59.53;99628.31;4367531;32;20118;-91
2023/11/22 04:09:25;;;;;;;0.68;0.65;;;;;;;6.30;59.53;99623.16;4367081;32;20121;-91
2023/11/22 04:11:50;;;;;;;0.00;0.00;;;;;;;6.44;59.54;99629.81;4379195;32;20102;-91
2023/11/22 04:14:16;;;;;;;0.80;0.80;;;;;;;6.19;59.52;99627.69;4375914;32;20233;-90
2023/11/22 04:16:41;;;;;;;0.73;0.73;;;;;;;6.15;59.52;99626.84;4373258;32;20123;-92
2023/11/22 04:19:07;;;;;;;0.73;0.73;;;;;;;6.22;59.53;99625.88;4391660;32;20134;-92
2023/11/22 04:21:32;;;;;;;0.62;0.62;;;;;;;6.31;59.52;99632.63;4383642;32;20181;-91
2023/11/22 04:23:57;;;;;;;4.15;0.40;;;;;;;6.67;59.55;99631.16;4366923;32;20157;-91
2023/11/22 04:26:24;;;;;;;0.88;0.88;;;;;;;6.52;59.54;99644.34;4372962;32;20174;-91
2023/11/22 04:28:50;;;;;;;1.35;1.25;;;;;;;6.27;59.52;99636.16;4375886;32;20412;-91
2023/11/22 04:31:15;;;;;;;0.22;0.22;;;;;;;6.54;59.54;99630.50;4383166;32;20136;-92
2023/11/22 04:33:49;;;;;;;0.35;0.35;;;;;;;6.30;59.52;99631.78;4376227;32;20120;-91
2023/11/22 04:36:16;;;;;;;0.43;0.35;;;;;;;6.24;59.52;99637.06;4353951;32;20114;-92
2023/11/22 04:38:42;;;;;;;1.12;0.75;;;;;;;6.53;59.54;99639.16;4364070;32;20153;-91
2023/11/22 04:41:07;;;;;;;0.30;0.30;;;;;;;6.28;59.53;99641.28;4364991;32;20134;-92
2023/11/22 04:43:33;;;;;;;0.00;0.00;;;;;;;6.31;59.52;99637.78;4365884;32;20132;-91
2023/11/22 04:45:58;;;;;;;0.80;0.77;;;;;;;6.34;59.52;99648.94;4365513;32;20133;-91
2023/11/22 04:48:24;;;;;;;0.15;0.15;;;;;;;6.41;59.53;99652.28;4390161;32;20130;-91
2023/11/22 04:50:49;;;;;;;0.82;0.82;;;;;;;6.30;59.53;99651.59;4364868;32;20132;-92
2023/11/22 04:53:15;;;;;;;0.52;0.43;;;;;;;6.25;59.52;99663.75;4365255;32;20133;-90
2023/11/22 04:55:40;;;;;;;0.47;0.47;;;;;;;6.49;59.54;99657.31;4365236;32;20148;-91
2023/11/22 04:58:06;;;;;;;0.68;0.68;;;;;;;6.47;59.53;99660.78;4366997;32;20129;-90
2023/11/22 05:00:31;;;;;;;0.93;0.93;;;;;;;6.54;59.54;99656.38;4380698;32;20082;-92
2023/11/22 05:02:57;;;;;;;1.95;1.48;;;;;;;6.35;59.52;99660.13;4369982;32;20124;-93
2023/11/22 05:05:28;;;;;;;0.13;0.13;;;;;;;6.46;59.54;99658.22;4368427;32;20150;-93
2023/11/22 05:07:53;;;;;;;0.10;0.10;;;;;;;6.39;59.53;99651.47;4363861;32;20090;-92
2023/11/22 05:10:19;;;;;;;0.45;0.43;;;;;;;6.27;59.52;99672.34;4365406;32;20144;-92
2023/11/22 05:12:44;;;;;;;0.08;0.08;;;;;;;6.29;59.53;99665.41;4369304;32;20496;-93
2023/11/22 05:15:10;;;;;;;0.20;0.20;;;;;;;6.09;59.52;99676.91;4380312;32;20130;-93
2023/11/22 05:17:51;;;;;;;0.13;0.13;;;;;;;6.09;59.52;99683.81;4360237;32;20094;-93
2023/11/22 05:20:16;;;;;;;0.22;0.22;;;;;;;6.09;59.52;99681.22;4381469;32;20086;-93
2023/11/22 05:23:32;;;;;;;5.93;1.20;;;;;;;6.35;59.52;99686.84;4364834;32;20126;-92
2023/11/22 05:26:32;;;;;;;3.12;1.10;;;;;;;6.42;59.54;99688.47;4378490;32;20122;-95
2023/11/22 05:29:34;;;;;;;;;;;;;;;;;;;;;
2023/11/22 05:32:57;;;;;;;0.15;0.05;;;;;;;6.25;59.52;99687.87;4369804;32;35687;-93
2023/11/22 05:35:59;;;;;;;1.80;0.37;;;;;;;6.25;59.52;99690.44;4394399;32;20095;-91
2023/11/22 05:39:11;;;;;;;2.05;0.43;;;;;;;6.32;59.53;99694.63;4382917;32;20078;-93
2023/11/22 05:42:09;;;;;;;1.02;0.93;;;;;;;6.18;59.51;99709.53;4373645;32;20129;-94
2023/11/22 05:44:57;;;;;;;0.52;0.52;;;;;;;5.79;59.50;99719.50;4377553;32;20090;-93
2023/11/22 06:02:02;;;;;;;0.05;0.05;;;;;;;5.71;59.50;99742.00;4388298;32;20132;-93
2023/11/22 06:05:32;;;;;;;;;;;;;;;;;;;;;
2023/11/22 06:08:57;;;;;;;0.13;0.13;;;;;;;5.82;59.49;99747.00;4391039;32;36945;-94
2023/11/22 06:15:32;;;;;;;0.00;0.00;;;;;;;5.61;59.48;99770.50;4340608;32;20138;-96
2023/11/22 06:22:22;;;;;;;;;;;;;;;;;;;;;
2023/11/22 06:26:03;;;;;;;0.65;0.65;;;;;;;5.78;59.50;99784.94;4311374;33;35766;-94
2023/11/22 06:28:34;;;;;;;0.43;0.43;;;;;;;5.94;59.51;99782.22;4322540;32;20506;-94
2023/11/22 06:31:09;;;;;;;0.20;0.20;;;;;;;5.89;59.50;99789.09;4354625;32;20158;-96
2023/11/22 06:36:56;;;;;;;0.80;0.80;;;;;;;6.30;59.52;99794.63;4382454;32;20152;-95
2023/11/22 06:42:56;;;;;;;1.67;1.58;;;;;;;6.38;59.53;99807.44;4394908;32;20117;-95
2023/11/22 06:49:34;;;;;;;0.20;0.20;;;;;;;6.27;59.52;99820.53;4395135;32;20108;-93
2023/11/22 06:56:54;;;;;;;2.00;1.80;;;;;;;6.41;59.53;99821.19;4285740;33;20096;-94
2023/11/22 07:34:55;;;;;;;0.00;0.00;;;;;;;7.58;59.59;99885.78;4862513;27;20175;-92
2023/11/22 07:37:21;;;;;;;0.13;0.13;;;;;;;7.44;59.59;99874.78;4278709;33;20164;-93
2023/11/22 07:39:47;;;;;;;0.13;0.13;;;;;;;7.27;59.58;99876.78;4289712;33;20117;-93
2023/11/22 07:42:12;;;;;;;0.73;0.73;;;;;;;7.53;59.59;99874.62;4277812;33;20127;-93
2023/11/22 07:44:42;;;;;;;0.47;0.47;;;;;;;7.56;59.60;99876.28;4277157;33;20097;-93
2023/11/22 07:47:10;;;;;;;0.00;0.00;;;;;;;7.58;59.60;99882.31;4269992;33;20110;-92
2023/11/22 07:53:21;;;;;;;0.00;0.00;;;;;;;7.42;59.59;99894.69;4282529;33;20096;-95
2023/11/22 07:55:47;;;;;;;0.10;0.10;;;;;;;7.78;59.61;99895.75;4288432;33;20467;-92
2023/11/22 07:58:15;;;;;;;1.35;0.57;;;;;;;7.91;59.61;99897.25;4280454;33;20101;-91
2023/11/22 08:00:55;;;;;;;0.40;0.40;;;;;;;8.07;59.63;99887.44;4263362;33;20459;-91
2023/11/22 08:03:46;;;;;;;0.00;0.00;;;;;;;8.32;59.64;99890.41;4261242;33;20157;-92
2023/11/22 08:06:52;;;;;;;;;;;;;;;;;;;;;
2023/11/22 08:12:14;;;;;;;0.10;0.10;;;;;;;8.37;59.63;99903.31;4316288;28;20164;-94
2023/11/22 08:15:00;;;;;;;0.37;0.37;;;;;;;8.29;59.63;99904.28;4265773;33;20482;-93
2023/11/22 08:18:01;;;;;;;0.00;0.00;;;;;;;8.32;59.64;99905.97;4270980;33;20093;-95
2023/11/22 08:21:06;;;;;;;0.00;0.00;;;;;;;8.33;59.64;99912.84;4280240;33;20065;-96
2023/11/22 08:23:47;;;;;;;1.40;0.73;;;;;;;8.44;59.64;99915.25;4260933;33;20173;-95
2023/11/22 08:26:46;;;;;;;0.08;0.08;;;;;;;8.49;59.64;99916.00;4269444;33;20101;-96
2023/11/22 08:29:56;;;;;;;0.17;0.17;;;;;;;8.37;59.63;99919.72;4264862;33;20097;-95
2023/11/22 08:32:36;;;;;;;0.08;0.08;;;;;;;8.43;59.64;99911.81;4275681;33;20202;-95
2023/11/22 08:35:53;;;;;;;;;;;;;;;;;;;;;
2023/11/22 08:39:03;;;;;;;;;;;;;;;;;;;;;
2023/11/22 08:41:55;;;;;;;3.08;0.35;;;;;;;8.42;59.64;99928.25;4291302;33;36271;-93
2023/11/22 08:45:13;;;;;;;0.05;0.05;;;;;;;8.26;59.63;99934.59;4284710;33;20097;-96
2023/11/22 08:48:04;;;;;;;0.52;0.52;;;;;;;8.67;59.66;99932.94;4277493;33;20114;-95
2023/11/22 08:50:48;;;;;;;;;;;;;;;;;;;;;
2023/11/22 08:53:15;;;;;;;0.08;0.08;;;;;;;8.55;59.65;99941.84;4277848;33;35820;-96
2023/11/22 08:55:40;;;;;;;0.20;0.20;;;;;;;8.26;59.63;99944.97;4255777;33;20140;-96
2023/11/22 08:58:08;;;;;;;0.52;0.52;;;;;;;8.26;59.64;99953.59;4265638;33;20532;-95
2023/11/22 09:00:33;;;;;;;0.00;0.00;;;;;;;8.06;59.62;99950.56;4266942;33;20108;-96
2023/11/22 09:02:59;;;;;;;0.00;0.00;;;;;;;8.07;59.63;99939.31;4267564;33;20160;-95
2023/11/22 09:05:25;;;;;;;0.68;0.68;;;;;;;8.00;59.62;99948.91;4267140;33;20138;-95
2023/11/22 09:07:51;;;;;;;0.22;0.22;;;;;;;7.92;59.62;99948.19;4287752;33;20105;-96
2023/11/22 09:10:18;;;;;;;1.10;0.65;;;;;;;7.86;59.61;99950.91;4281716;33;20099;-95
2023/11/22 09:12:43;;;;;;;0.15;0.15;;;;;;;7.77;59.61;99951.06;4279533;33;20060;-95
2023/11/22 09:15:14;;;;;;;0.52;0.52;;;;;;;7.69;59.60;99952.94;4268361;33;20119;-95
2023/11/22 09:17:45;;;;;;;0.10;0.10;;;;;;;7.74;59.60;99961.47;4265952;33;20109;-96
2023/11/22 09:20:14;;;;;;;0.00;0.00;;;;;;;7.80;59.61;99956.19;4289642;33;20104;-95
2023/11/22 09:22:50;;;;;;;0.10;0.10;;;;;;;7.81;59.61;99963.09;4268304;33;20163;-96
2023/11/22 09:25:16;;;;;;;0.10;0.10;;;;;;;7.91;59.61;99976.75;4278065;33;20088;-96
2023/11/22 09:28:03;;;;;;;0.20;0.17;;;;;;;8.01;59.62;99978.28;4267325;33;20135;-95
2023/11/22 09:30:42;;;;;;;0.20;0.20;;;;;;;8.10;59.62;99974.69;4269092;33;20064;-95
2023/11/22 09:33:09;;;;;;;0.63;0.63;;;;;;;8.24;59.64;99976.13;4259539;33;20114;-95
2023/11/22 09:35:38;;;;;;;0.82;0.52;;;;;;;8.34;59.64;99976.00;4265712;33;20478;-96
2023/11/22 09:38:06;;;;;;;0.10;0.10;;;;;;;8.28;59.63;99980.38;4277607;33;20112;-95
2023/11/22 09:40:32;;;;;;;0.20;0.20;;;;;;;8.32;59.64;99991.56;4260837;33;20157;-96
2023/11/22 09:43:02;;;;;;;0.75;0.75;;;;;;;8.42;59.64;99985.31;4273854;33;20413;-95
2023/11/22 09:45:32;;;;;;;0.52;0.52;;;;;;;8.72;59.66;99983.00;4277369;33;20093;-95
2023/11/22 09:47:57;;;;;;;0.35;0.35;;;;;;;8.84;59.67;99988.78;4290517;33;20412;-95
2023/11/22 09:50:35;;;;;;;0.10;0.10;;;;;;;8.97;59.68;99989.38;4276017;33;20166;-95
2023/11/22 09:53:01;;;;;;;0.75;0.28;;;;;;;8.99;59.67;99994.53;4267951;33;20101;-96
2023/11/22 09:55:28;;;;;;;0.10;0.10;;;;;;;8.88;59.66;99997.38;4279933;33;20103;-95
2023/11/22 09:57:53;;;;;;;0.28;0.20;;;;;;;8.54;59.65;100005.84;4275535;33;20081;-96
2023/11/22 10:00:20;;;;;;;0.65;0.47;;;;;;;8.30;59.64;100012.31;4266100;33;20405;-95
2023/11/22 10:02:47;;;;;;;1.90;1.80;;;;;;;7.96;59.61;100019.84;4280300;33;20163;-96
2023/11/22 10:05:12;;;;;;;1.65;0.43;;;;;;;7.96;59.62;100014.66;4268271;33;20597;-96
2023/11/22 10:07:38;;;;;;;0.05;0.05;;;;;;;7.90;59.61;100014.75;4263280;33;20176;-95
2023/11/22 10:10:05;;;;;;;4.90;0.73;;;;;;;7.93;59.62;100016.44;4271245;33;20097;-94
2023/11/22 10:12:36;;;;;;;0.32;0.30;;;;;;;8.04;59.62;100021.44;4284185;33;20100;-95
2023/11/22 10:15:13;;;;;;;1.90;1.10;;;;;;;8.16;59.63;100019.50;4279668;33;20438;-95
2023/11/22 10:17:39;;;;;;;0.45;0.43;;;;;;;7.97;59.61;100026.72;4279935;33;20152;-96
2023/11/22 10:20:10;;;;;;;0.37;0.37;;;;;;;7.86;59.62;100022.63;4281190;33;20139;-96
2023/11/22 10:22:47;;;;;;;0.65;0.65;;;;;;;7.68;59.60;100021.19;4283321;33;20112;-96
2023/11/22 10:25:13;;;;;;;0.75;0.75;;;;;;;7.59;59.60;100026.50;4257927;33;20621;-95
2023/11/22 10:27:40;;;;;;;2.20;1.20;;;;;;;7.62;59.61;100032.50;4279999;33;20164;-95
2023/11/22 10:30:06;;;;;;;2.62;1.40;;;;;;;7.55;59.60;100033.44;4291432;33;20123;-94
2023/11/22 10:32:33;;;;;;;0.85;0.82;;;;;;;7.55;59.60;100038.62;4299368;33;20855;-96
2023/11/22 10:34:59;;;;;;;1.00;0.93;;;;;;;7.52;59.59;100048.19;4267259;33;20105;-95
2023/11/22 10:37:27;;;;;;;0.70;0.70;;;;;;;7.55;59.60;100049.00;4280433;33;20101;-95
2023/11/22 10:39:53;;;;;;;0.25;0.25;;;;;;;7.81;59.61;100055.53;4275852;33;20137;-96
2023/11/22 10:42:19;;;;;;;1.30;1.27;;;;;;;7.56;59.60;100061.06;4274678;33;20144;-96
2023/11/22 10:44:45;;;;;;;0.62;0.57;;;;;;;7.52;59.59;100074.94;4267991;33;20481;-96
2023/11/22 10:47:13;;;;;;;0.37;0.30;;;;;;;7.58;59.59;100074.87;4255914;33;20137;-96
2023/11/22 10:49:38;;;;;;;0.52;0.52;;;;;;;7.68;59.60;100081.63;4279944;33;20116;-95
2023/11/22 10:52:05;;;;;;;0.10;0.10;;;;;;;7.62;59.61;100081.72;4279944;33;20149;-96
2023/11/22 10:54:34;;;;;;;2.75;1.25;;;;;;;7.55;59.60;100093.03;4278484;33;20119;-93
2023/11/22 10:57:00;;;;;;;0.80;0.80;;;;;;;7.51;59.59;100091.37;4269130;33;20117;-92
2023/11/22 10:59:27;;;;;;;0.50;0.30;;;;;;;7.51;59.59;100088.78;4271599;33;20143;-94
2023/11/22 11:01:54;;;;;;;1.45;1.10;;;;;;;7.43;59.59;100094.94;4259525;33;20095;-94
2023/11/22 11:04:42;;;;;;;0.62;0.62;;;;;;;7.30;59.58;100097.69;4277189;33;20088;-94
2023/11/22 11:07:08;;;;;;;0.30;0.30;;;;;;;7.39;59.58;100104.50;4277896;33;20523;-94
2023/11/22 11:09:33;;;;;;;2.08;1.02;;;;;;;7.08;59.57;100115.22;4277856;33;20153;-93
2023/11/22 11:11:59;;;;;;;1.80;1.08;;;;;;;7.04;59.57;100125.63;4274263;33;20085;-94
2023/11/22 11:14:25;;;;;;;0.85;0.85;;;;;;;7.17;59.57;100127.22;4260217;33;20093;-94
2023/11/22 11:16:54;;;;;;;0.52;0.52;;;;;;;7.32;59.58;100115.78;4286413;33;20113;-93
2023/11/22 11:19:22;;;;;;;0.75;0.57;;;;;;;7.25;59.59;100116.75;4255463;33;116336;-93
2023/11/22 11:21:47;;;;;;;0.00;0.00;;;;;;;7.15;59.57;100120.34;4294668;33;20092;-93
2023/11/22 11:24:14;;;;;;;3.17;1.70;;;;;;;7.07;59.56;100130.78;4258793;33;20461;-92
2023/11/22 11:26:39;;;;;;;4.75;1.23;;;;;;;7.20;59.57;100113.38;4263377;33;20143;-92
2023/11/22 11:29:06;;;;;;;1.85;1.70;;;;;;;6.99;59.57;100132.59;4263045;33;20436;-93
2023/11/22 11:31:35;;;;;;;0.75;0.75;;;;;;;6.96;59.57;100141.25;4263347;33;20200;-93
2023/11/22 11:34:00;;;;;;;0.70;0.70;;;;;;;6.91;59.56;100129.25;4266080;33;20097;-94
2023/11/22 11:36:31;;;;;;;0.68;0.68;;;;;;;7.08;59.57;100130.75;4275007;33;20125;-93
2023/11/22 11:38:58;;;;;;;1.00;1.00;;;;;;;7.27;59.58;100133.97;4266034;33;20096;-93
2023/11/22 11:41:32;;;;;;;1.75;1.00;;;;;;;7.29;59.58;100133.97;4256244;33;20115;-93
2023/11/22 11:43:58;;;;;;;6.32;2.42;;;;;;;7.31;59.58;100137.38;4266304;33;20148;-93
2023/11/22 11:46:25;;;;;;;2.65;0.77;;;;;;;7.31;59.58;100139.97;4256357;33;20428;-94
2023/11/22 11:48:51;;;;;;;7.95;2.10;;;;;;;7.55;59.60;100142.25;4265629;33;20813;-93
2023/11/22 11:51:22;;;;;;;0.68;0.68;;;;;;;7.61;59.59;100139.59;4274752;33;20160;-94
2023/11/22 11:53:47;;;;;;;6.50;2.40;;;;;;;7.72;59.60;100135.97;4265201;33;20088;-93
2023/11/22 11:56:13;;;;;;;0.35;0.35;;;;;;;7.92;59.62;100128.78;4277327;33;20138;-93
2023/11/22 11:59:28;;;;;;;0.68;0.68;;;;;;;8.01;59.63;100123.44;4256437;33;20149;-93
2023/11/22 12:01:55;;;;;;;0.47;0.47;;;;;;;8.14;59.62;100121.53;4286690;33;20092;-93
2023/11/22 12:04:22;;;;;;;3.78;1.73;;;;;;;8.11;59.62;100125.03;4265164;33;20748;-93
2023/11/22 12:06:50;;;;;;;0.35;0.35;;;;;;;8.14;59.64;100127.56;4278157;33;20120;-94
2023/11/22 12:09:24;;;;;;;0.45;0.45;;;;;;;8.08;59.63;100135.44;4271875;33;20096;-93
2023/11/22 12:11:49;;;;;;;0.55;0.55;;;;;;;8.13;59.62;100135.37;4259595;33;20744;-94
2023/11/22 12:14:15;;;;;;;0.43;0.43;;;;;;;7.98;59.61;100131.28;4272475;33;20104;-93
2023/11/22 12:16:42;;;;;;;1.50;1.23;;;;;;;8.07;59.62;100132.88;4266834;33;20394;-92
2023/11/22 12:19:08;;;;;;;0.30;0.30;;;;;;;8.18;59.63;100130.97;4267637;33;20159;-93
2023/11/22 12:21:33;;;;;;;2.33;2.15;;;;;;;8.43;59.64;100128.84;4277068;33;20109;-93
2023/11/22 12:24:00;;;;;;;3.20;2.45;;;;;;;8.45;59.65;100135.72;4278807;33;20410;-93
2023/11/22 12:26:25;;;;;;;0.65;0.55;;;;;;;8.52;59.65;100134.75;4267070;33;20108;-93
2023/11/22 12:28:52;;;;;;;0.40;0.40;;;;;;;8.54;59.65;100132.13;4267107;33;20109;-93
2023/11/22 12:31:17;;;;;;;0.50;0.50;;;;;;;8.53;59.65;100146.84;4257005;33;20085;-93
2023/11/22 12:33:43;;;;;;;0.57;0.47;;;;;;;8.58;59.65;100139.81;4266657;33;20128;-93
2023/11/22 12:36:09;;;;;;;0.77;0.55;;;;;;;8.79;59.66;100132.53;4257507;33;20260;-93
2023/11/22 12:38:35;;;;;;;1.25;1.15;;;;;;;8.86;59.66;100141.91;4266647;33;20101;-93
2023/11/22 12:41:03;;;;;;;1.08;1.00;;;;;;;8.89;59.68;100145.31;4257190;33;20168;-94
2023/11/22 12:43:29;;;;;;;1.20;0.75;;;;;;;9.15;59.69;100151.72;4266556;33;20100;-93
2023/11/22 12:46:06;;;;;;;0.95;0.93;;;;;;;9.08;59.68;100152.75;4266506;33;20109;-93
2023/11/22 12:48:32;;;;;;;1.42;1.33;;;;;;;9.02;59.67;100160.66;4278667;33;20180;-93
2023/11/22 12:50:58;;;;;;;0.62;0.45;;;;;;;9.10;59.68;100164.81;4266617;33;20119;-93
2023/11/22 12:53:25;;;;;;;0.08;0.08;;;;;;;9.20;59.69;100174.12;4266495;33;20096;-93
2023/11/22 12:55:52;;;;;;;1.00;0.40;;;;;;;9.32;59.69;100162.66;4259016;33;20108;-92
2023/11/22 12:58:18;;;;;;;2.08;0.73;;;;;;;9.38;59.69;100164.25;4261858;33;20161;-93
2023/11/22 13:00:47;;;;;;;0.20;0.20;;;;;;;9.22;59.69;100172.34;4256676;33;20376;-92
2023/11/22 13:03:13;;;;;;;0.00;0.00;;;;;;;9.01;59.67;100162.41;4266591;33;20139;-93
2023/11/22 13:05:48;;;;;;;1.17;1.08;;;;;;;9.04;59.67;100171.88;4266412;33;20116;-91
2023/11/22 13:08:13;;;;;;;12.10;1.67;;;;;;;9.15;59.68;100178.56;4266505;33;20173;-90
2023/11/22 13:10:40;;;;;;;0.40;0.40;;;;;;;9.28;59.70;100184.38;4277893;33;20412;-91
2023/11/22 13:13:08;;;;;;;0.60;0.60;;;;;;;9.17;59.69;100186.31;4257773;33;20098;-92
2023/11/22 13:16:18;;;;;;;;;;;;;;;;;;;;;
2023/11/22 13:18:45;;;;;;;0.65;0.65;;;;;;;9.38;59.69;100180.69;4288361;33;36730;-90
2023/11/22 13:21:13;;;;;;;0.20;0.20;;;;;;;9.40;59.69;100183.28;4277893;33;20489;-91
2023/11/22 13:23:38;;;;;;;0.88;0.82;;;;;;;9.49;59.71;100183.97;4262611;33;21327;-90
2023/11/22 13:26:05;;;;;;;4.62;1.25;;;;;;;9.51;59.70;100182.19;4271857;33;20113;-90
2023/11/22 13:28:34;;;;;;;2.62;2.08;;;;;;;9.65;59.71;100183.63;4278306;33;20132;-91
2023/11/22 13:31:00;;;;;;;2.00;1.90;;;;;;;9.68;59.71;100176.59;4257097;33;20105;-92